Pagrindinis puslapis
METAR-TAF:

METAR-TAF

Oro uostai :

Hawarden, Velsas

platuma: 53-10N, ilguma: 002-59W, Aukštis: 10 m

Dabartinis oras

Ataskaita buvo paskelbta 10 minutes, ne 23:20 UTC
Vėjas 11 kt iš Pietų/Pietvakarių
Temperatūra 4°C
Drėgmė 87%
Slėgis 987 hPa
Matomumas 10 km arba daugiau
Išsisklaidę debesys ne aukštis 3000 ft

METAR: EGNR 272320Z 21011KT 9999 SCT030 04/02 Q0987

Laikas: 23:30 (23:30 UTC)

Prognozė

Ataskaita buvo paskelbta 6 valandos ir 30 minutes, ne 17:00 UTC
Prognozė galioja nuo 27 metu 18 UTC su 27 metu 21 UTC
Vėjas 8 kt iš Pietų/Pietryčių
Matomumas 10 km arba daugiau
Mažai debesys ne aukštis 1500 ft
Išsisklaidę debesys ne aukštis 3500 ft
Tikimybė 40% :
Laikinai
nuo 27 metu 18 UTC su 27 metu 21 UTC
Matomumas: 6000 m
Su prošvaistėmis ne aukštis 1400 ft
lietus

TAF: EGNR 271700Z 2718/2721 15008KT 9999 FEW015 SCT035 PROB40 TEMPO 2718/2721 6000 SHRA BKN014

Orai ataskaitas ir orų prognozės (METAR, TAF).

turimą stotys yra geltonos ir raudonos taškus žemėlapyje.

Perkelti pele per norėdami pamatyti stoties vardą.

Tada spustelėkite, norėdami matyti oro stebėjimo ir prognozės.

Norėdami pakeisti žemėlapį: spustelėkite ant žalios mygtukų su juodo kryžiaus žemyn,; žalią mygtuką su brūkšneliu, jei norite nutolinti; arba žalių rodyklių gretimoms žemėlapius.


METAR-TAF: